Mitteilungen - Kartenansicht · Info · Telemetrie · Wetter · Rohdaten · Status · Baken · Mitteilungen · Nachrichten · durchsuchen · bewegend · Mein Benutzerkonto
Rufzeichen:
Zeige:

Lade message Pakete...

APRS Mitteilungen werden für 14 Tage gespeichert. Es ist möglich bei der Suche einen Platzhalter (*?) nach dem Präfix zu verwenden.

2019-05-26 23:56:58 EDT: JR4ENY-10>JL6NQN-3: âeüEXâg
2019-05-26 23:57:06 EDT: KH0ZX-7>NA1SS: 73
2019-05-26 23:57:33 EDT: VE6SLP-9>EMAIL: slepp@slepp.ca Restarted.
2019-05-26 23:57:33 EDT: OUNSVR>NWS-WARN: 270430z,SVR_STORM,OKC045-059
2019-05-26 23:57:33 EDT: OUNSVR>NWS_WARN: 270430z,SVR_STORM,OKC045-059
2019-05-26 23:57:52 EDT: JR4ENY-10>JL6NQN-3: âeâXüEg
2019-05-26 23:57:52 EDT: JR4ENY-10>JL6NQN-3: âeâXâg
2019-05-26 23:57:53 EDT: TKISWW>BOM_CANCL: 270700z,SEVERE_WX,TAS_PW011
2019-05-26 23:57:53 EDT: TKISWW>BOMTKI: Cancellation of Severe Weather Warning for King Island
2019-05-26 23:57:53 EDT: TKISWW>BOMTKI: forecast district
2019-05-26 23:57:54 EDT: JR4ENY-10>JL6NQN-3: âeüEXâg
2019-05-26 23:58:15 EDT: VE6SLP-9>EMAIL: slepp@slepp.ca Restarted.
2019-05-26 23:58:33 EDT: DDCSVR>NWS-WARN: 270430z,SVR_STORM,KSC055-057-069-083-101-135-171
2019-05-26 23:58:33 EDT: DDCSVR>NWS_WARN: 270430z,SVR_STORM,KSC055-057-069-083-101-135-171
2019-05-26 23:58:33 EDT: AMASVR>NWS-WARN: 270445z,SVR_STORM,OKC007-TXC295
2019-05-26 23:58:33 EDT: AMASVR>NWS_WARN: 270445z,SVR_STORM,OKC007-TXC295
2019-05-26 23:58:33 EDT: OUNSVR>NWS-WARN: 270430z,SVR_STORM,OKC045-059
2019-05-26 23:58:33 EDT: OUNSVR>NWS_WARN: 270430z,SVR_STORM,OKC045-059
2019-05-26 23:58:38 EDT: KM4KAW-9>KM4KAW: SitRep: 10.8214 72.50f
2019-05-26 23:58:53 EDT: JR4ENY-10>JL6NQN-3: âeâXüEg
2019-05-26 23:58:53 EDT: JR4ENY-10>JL6NQN-3: âeâXâg
2019-05-26 23:58:55 EDT: JR4ENY-10>JL6NQN-3: âeüEXâg
2019-05-26 23:58:58 EDT: WP4LU>EMAIL-1: msg osvakdo_rivera@msn.com test
2019-05-26 23:59:18 EDT: VE6SLP-9>EMAIL: slepp@slepp.ca Restarted.
2019-05-26 23:59:33 EDT: UNRFFW>NWS-WARN: 270900z,FLASH_FLOOD,SDC055-093-137
2019-05-26 23:59:33 EDT: UNRFFW>NWS_WARN: 270900z,FLASH_FLOOD,SDC055-093-137
2019-05-26 23:59:33 EDT: LUBTOR>NWS-WARN: 270430z,TORNADO,TXC045-069-437
2019-05-26 23:59:33 EDT: LUBTOR>NWS_WARN: 270430z,TORNADO,TXC045-069-437
2019-05-26 23:59:48 EDT: WP4LU>EMAIL-1: msg osvakdo_rivera@msn.com test
2019-05-26 23:59:55 EDT: JR4ENY-10>JL6NQN-3: âeâXâg
2019-05-27 00:00:09 EDT: VK2GJ-6>VK2GJ-7: Directs=VK2GJ-5
2019-05-27 00:00:12 EDT: HS9QYG>HS9QYG: UNI
2019-05-27 00:00:22 EDT: HS9QYG>HS9QYG: EQN
2019-05-27 00:00:33 EDT: CYSFFW>NWS-WARN: 270500z,FLASH_FLOOD,WYC031
2019-05-27 00:00:33 EDT: CYSFFW>NWS_WARN: 270500z,FLASH_FLOOD,WYC031
2019-05-27 00:00:33 EDT: DDCSVR>NWS-WARN: 270430z,SVR_STORM,KSC057-069
2019-05-27 00:00:33 EDT: DDCSVR>NWS_WARN: 270430z,SVR_STORM,KSC057-069
2019-05-27 00:00:43 EDT: SHLBTP>SHLBTP: Info - Cabinet Temp = 76.2F Vcc = 13.3V
2019-05-27 00:00:53 EDT: WP4LU>EMAIL-1: msg osvakdo_rivera@msn.com test
2019-05-27 00:00:57 EDT: AS64636>DO4BZ: U:dmr.db0xy [1]
2019-05-27 00:00:57 EDT: AS64636>DL1NE: U:dmr.db0xy [2]
2019-05-27 00:00:58 EDT: AS64636>DG4OAE: U:dmr.db0xy [3]
2019-05-27 00:01:00 EDT: KM4KAW-9>KM4KAW: SitRep: 10.8214 72.61f
2019-05-27 00:01:02 EDT: AS64636>DF4OL: Loc:DB0XY # U:dmr [16]
2019-05-27 00:01:06 EDT: N7QME-2>N7QME: hum 63 58 50 74 71 72 66 70
2019-05-27 00:01:06 EDT: AS64636>DH1ALF: Loc:DB0XY # U:dmr [17]
2019-05-27 00:01:33 EDT: BYZFFW>NWS-WARN: 270600z,FLASH_FLOOD,MTC037-095-111
2019-05-27 00:01:33 EDT: BYZFFW>NWS_WARN: 270600z,FLASH_FLOOD,MTC037-095-111
2019-05-27 00:01:33 EDT: AMASVR>NWS-WARN: 270445z,SVR_STORM,TXC117-359
2019-05-27 00:01:33 EDT: AMASVR>NWS_WARN: 270445z,SVR_STORM,TXC117-359
< vorhergehender
FAQ · Blog · Diskussionsgruppe · Link zu aprs.fi · AIS-Sites · Status des Servers · Datenbank Statistiken · Werbe auf aprs.fi · Technische Details · API · Änderungen · geplante Änderungen · Dank an · Nutzungsbedingungen · iPhone/iPad APRS